CPX793 Details

Departure: Kingsford Smith International Airport (YSSY)
Arrival: Auckland International Airport (NZAA) at N/A
Route: TESAT L521 LUNBI AA
Notes:


Current Weather Information
YSSY 171730Z 35006KT CAVOK 10/08 Q1020 NOSIG
NZAA 171730Z AUTO 03001KT 9999 -SHRA BKN060/// 11/11 Q1013 NOSIG